CSC8633 ZUCK-ZULS
Flight info
| Callsign | CSC8633 |
|---|---|
| Flight time | N/A |
| Altitude | 34100 |
| Route | URGEG1Z URGEG W80 WFX B213 LXA |
| Aircraft | A321/M-SDE3FGHIRWY/LB1 |
Departure
| Time | N/A |
|---|---|
| Airport | Chongqing Jiangbei International Airport (ZUCK) |
Arrival
| Time | 2026-04-26 09:29 |
|---|---|
| Airport | Lhasa Gonggar International Airport (ZULS) |
| Time | Latitude | Longitude | Altitude | Speed | Heading |
|---|---|---|---|---|---|
| 2026-04-26 09:04 | 30.13739 | 92.99097 | 33895 ft | 424 kts | 246° |
| 2026-04-26 09:04 | 30.11210 | 92.92936 | 33893 ft | 424 kts | 246° |
| 2026-04-26 09:05 | 30.08681 | 92.86792 | 33893 ft | 423 kts | 246° |
| 2026-04-26 09:05 | 30.06570 | 92.81682 | 33891 ft | 424 kts | 246° |
| 2026-04-26 09:06 | 30.04028 | 92.75539 | 33894 ft | 423 kts | 246° |
| 2026-04-26 09:06 | 30.01492 | 92.69414 | 33905 ft | 423 kts | 246° |
| 2026-04-26 09:07 | 29.98951 | 92.63297 | 33913 ft | 423 kts | 246° |
| 2026-04-26 09:07 | 29.96417 | 92.57181 | 33923 ft | 422 kts | 246° |
| 2026-04-26 09:08 | 29.93882 | 92.51073 | 33924 ft | 421 kts | 246° |
| 2026-04-26 09:08 | 29.91352 | 92.44982 | 33922 ft | 421 kts | 246° |
| 2026-04-26 09:09 | 29.88825 | 92.38941 | 33922 ft | 421 kts | 246° |
| 2026-04-26 09:09 | 29.86283 | 92.32867 | 33918 ft | 421 kts | 246° |
| 2026-04-26 09:10 | 29.83736 | 92.26788 | 33904 ft | 421 kts | 245° |
| 2026-04-26 09:10 | 29.81187 | 92.20710 | 33906 ft | 421 kts | 245° |
| 2026-04-26 09:11 | 29.78634 | 92.14633 | 33876 ft | 423 kts | 245° |
| 2026-04-26 09:11 | 29.76070 | 92.08522 | 33863 ft | 425 kts | 245° |
| 2026-04-26 09:11 | 29.74777 | 92.05450 | 33463 ft | 429 kts | 245° |
| 2026-04-26 09:12 | 29.73474 | 92.02358 | 32948 ft | 428 kts | 245° |
| 2026-04-26 09:12 | 29.72197 | 91.99334 | 32508 ft | 425 kts | 245° |
| 2026-04-26 09:12 | 29.70893 | 91.96249 | 32013 ft | 422 kts | 245° |
| 2026-04-26 09:12 | 29.69629 | 91.93264 | 31574 ft | 418 kts | 245° |
| 2026-04-26 09:13 | 29.68360 | 91.90265 | 31123 ft | 416 kts | 245° |
| 2026-04-26 09:13 | 29.67103 | 91.87289 | 30679 ft | 413 kts | 245° |
| 2026-04-26 09:13 | 29.65852 | 91.84330 | 30240 ft | 410 kts | 245° |
| 2026-04-26 09:13 | 29.64604 | 91.81383 | 29763 ft | 408 kts | 244° |
| 2026-04-26 09:14 | 29.63366 | 91.78462 | 29298 ft | 405 kts | 244° |
| 2026-04-26 09:14 | 29.62136 | 91.75565 | 28886 ft | 401 kts | 244° |
| 2026-04-26 09:14 | 29.60917 | 91.72696 | 28475 ft | 398 kts | 244° |
| 2026-04-26 09:14 | 29.59708 | 91.69851 | 28071 ft | 394 kts | 244° |
| 2026-04-26 09:15 | 29.58509 | 91.67033 | 27638 ft | 391 kts | 244° |
| 2026-04-26 09:15 | 29.57314 | 91.64228 | 27252 ft | 388 kts | 244° |
| 2026-04-26 09:15 | 29.56130 | 91.61449 | 26872 ft | 385 kts | 244° |
| 2026-04-26 09:15 | 29.54954 | 91.58691 | 26491 ft | 383 kts | 244° |
| 2026-04-26 09:16 | 29.53800 | 91.55988 | 26122 ft | 381 kts | 244° |
| 2026-04-26 09:16 | 29.52633 | 91.53258 | 25734 ft | 379 kts | 244° |
| 2026-04-26 09:16 | 29.51473 | 91.50547 | 25340 ft | 377 kts | 244° |
| 2026-04-26 09:16 | 29.50320 | 91.47848 | 24972 ft | 375 kts | 244° |
| 2026-04-26 09:17 | 29.49180 | 91.45177 | 24546 ft | 374 kts | 244° |
| 2026-04-26 09:17 | 29.48029 | 91.42483 | 24057 ft | 376 kts | 244° |
| 2026-04-26 09:17 | 29.46876 | 91.39792 | 23655 ft | 375 kts | 244° |
| 2026-04-26 09:17 | 29.45726 | 91.37115 | 23238 ft | 374 kts | 243° |
| 2026-04-26 09:18 | 29.44578 | 91.34446 | 22775 ft | 372 kts | 243° |
| 2026-04-26 09:18 | 29.43437 | 91.31795 | 22356 ft | 369 kts | 243° |
| 2026-04-26 09:18 | 29.42307 | 91.29165 | 21941 ft | 365 kts | 243° |
| 2026-04-26 09:18 | 29.41191 | 91.26566 | 21525 ft | 362 kts | 243° |
| 2026-04-26 09:19 | 29.40083 | 91.23986 | 21116 ft | 359 kts | 243° |
| 2026-04-26 09:19 | 29.38985 | 91.21425 | 20697 ft | 357 kts | 243° |
| 2026-04-26 09:19 | 29.37887 | 91.18871 | 20285 ft | 356 kts | 243° |
| 2026-04-26 09:19 | 29.36791 | 91.16327 | 19875 ft | 354 kts | 243° |
| 2026-04-26 09:20 | 29.35706 | 91.13808 | 19481 ft | 352 kts | 243° |
| 2026-04-26 09:20 | 29.34623 | 91.11298 | 19071 ft | 350 kts | 243° |
| 2026-04-26 09:20 | 29.33543 | 91.08803 | 18663 ft | 349 kts | 243° |
| 2026-04-26 09:20 | 29.32466 | 91.06317 | 18258 ft | 348 kts | 243° |
| 2026-04-26 09:21 | 29.31421 | 91.03826 | 17838 ft | 347 kts | 248° |
| 2026-04-26 09:21 | 29.30859 | 91.01145 | 17385 ft | 347 kts | 264° |
| 2026-04-26 09:21 | 29.30999 | 90.98392 | 17034 ft | 346 kts | 281° |
| 2026-04-26 09:21 | 29.31799 | 90.95845 | 16932 ft | 336 kts | 297° |
| 2026-04-26 09:22 | 29.32966 | 90.93571 | 16785 ft | 325 kts | 300° |
| 2026-04-26 09:22 | 29.34098 | 90.91411 | 16660 ft | 308 kts | 300° |
| 2026-04-26 09:22 | 29.35175 | 90.89356 | 16527 ft | 293 kts | 300° |
| 2026-04-26 09:22 | 29.36180 | 90.87440 | 16382 ft | 267 kts | 300° |
| 2026-04-26 09:23 | 29.37021 | 90.85654 | 16335 ft | 242 kts | 289° |
| 2026-04-26 09:23 | 29.37339 | 90.83861 | 16116 ft | 220 kts | 270° |
| 2026-04-26 09:23 | 29.37228 | 90.82198 | 15787 ft | 200 kts | 261° |
| 2026-04-26 09:23 | 29.37026 | 90.80684 | 15511 ft | 185 kts | 258° |
| 2026-04-26 09:24 | 29.36776 | 90.79279 | 15263 ft | 177 kts | 256° |
| 2026-04-26 09:24 | 29.36470 | 90.77922 | 15023 ft | 175 kts | 251° |
| 2026-04-26 09:24 | 29.35889 | 90.76713 | 14780 ft | 173 kts | 229° |
| 2026-04-26 09:24 | 29.34999 | 90.75811 | 14654 ft | 170 kts | 210° |
| 2026-04-26 09:25 | 29.33923 | 90.75312 | 14299 ft | 167 kts | 193° |
| 2026-04-26 09:25 | 29.32757 | 90.75236 | 14092 ft | 170 kts | 176° |
| 2026-04-26 09:25 | 29.31587 | 90.75628 | 13864 ft | 181 kts | 156° |
| 2026-04-26 09:25 | 29.30580 | 90.76479 | 13633 ft | 180 kts | 137° |
| 2026-04-26 09:26 | 29.29893 | 90.77683 | 13461 ft | 186 kts | 112° |
| 2026-04-26 09:26 | 29.29622 | 90.79125 | 13235 ft | 187 kts | 92° |
| 2026-04-26 09:26 | 29.29659 | 90.80608 | 12993 ft | 187 kts | 88° |
| 2026-04-26 09:26 | 29.29690 | 90.82098 | 12776 ft | 188 kts | 91° |
| 2026-04-26 09:27 | 29.29680 | 90.83587 | 12584 ft | 187 kts | 91° |
| 2026-04-26 09:27 | 29.29717 | 90.85077 | 12206 ft | 185 kts | 89° |
| 2026-04-26 09:27 | 29.29727 | 90.86542 | 11918 ft | 183 kts | 89° |
| 2026-04-26 09:27 | 29.29761 | 90.87994 | 11674 ft | 181 kts | 89° |
| 2026-04-26 09:28 | 29.29781 | 90.89435 | 11449 ft | 179 kts | 88° |
| 2026-04-26 09:28 | 29.29800 | 90.90737 | 11439 ft | 144 kts | 89° |
| 2026-04-26 09:28 | 29.29814 | 90.91688 | 11424 ft | 95 kts | 89° |
| 2026-04-26 09:28 | 29.29823 | 90.92266 | 11408 ft | 63 kts | 89° |
| 2026-04-26 09:29 | 29.29831 | 90.92749 | 11420 ft | 51 kts | 89° |
| 2026-04-26 09:29 | 29.29835 | 90.93028 | 11421 ft | 33 kts | 88° |
| 2026-04-26 09:29 | 29.29801 | 90.93217 | 11421 ft | 21 kts | 104° |
| 2026-04-26 09:29 | 29.29846 | 90.93250 | 11416 ft | 4 kts | 266° |
| 2026-04-26 09:30 | 29.29842 | 90.93205 | 11424 ft | 8 kts | 264° |